This is the latest recevied weather packets stored in our database for station/object OK1KZE-6. If no packets are shown the sender has not sent any weather packets the latest 10 day(s).
| Time | Temp. | Humidity | Pressure | Rain* | Wind** | Luminosity | Snow |
|---|---|---|---|---|---|---|---|
| 1777879507 | 13.89° C | 63% | 1016.6 hPa | - | - | - | - |
| 1777879209 | 13.89° C | 64% | 1016.5 hPa | - | - | - | - |
| 1777878908 | 13.89° C | 63% | 1016.3 hPa | - | - | - | - |
| 1777878608 | 13.89° C | 65% | 1016.4 hPa | - | - | - | - |
| 1777878307 | 13.89° C | 64% | 1016.4 hPa | - | - | - | - |
| 1777878008 | 13.89° C | 65% | 1016.4 hPa | - | - | - | - |
| 1777877708 | 13.33° C | 65% | 1016.4 hPa | - | - | - | - |
| 1777877407 | 13.33° C | 66% | 1016.3 hPa | - | - | - | - |
| 1777877107 | 13.33° C | 65% | 1016 hPa | - | - | - | - |
| 1777876807 | 13.33° C | 63% | 1016.1 hPa | - | - | - | - |
| 1777876207 | 12.78° C | 67% | 1016.2 hPa | - | - | - | - |
| 1777875909 | 12.22° C | 69% | 1016.1 hPa | - | - | - | - |
| 1777875608 | 11.67° C | 71% | 1015.9 hPa | - | - | - | - |
| 1777875308 | 11.11° C | 73% | 1016 hPa | - | - | - | - |
| 1777875008 | 11.11° C | 72% | 1016.1 hPa | - | - | - | - |
| 1777874708 | 11.11° C | 72% | 1016 hPa | - | - | - | - |
| 1777874409 | 10.56° C | 74% | 1015.9 hPa | - | - | - | - |
| 1777874108 | 11.11° C | 73% | 1015.9 hPa | - | - | - | - |
| 1777873808 | 11.67° C | 72% | 1015.5 hPa | - | - | - | - |
| 1777873507 | 11.67° C | 70% | 1015.5 hPa | - | - | - | - |
| 1777873207 | 11.11° C | 71% | 1015.5 hPa | - | - | - | - |
| 1777872908 | 11.67° C | 69% | 1015.7 hPa | - | - | - | - |
| 1777872608 | 12.22° C | 66% | 1015.3 hPa | - | - | - | - |
| 1777872307 | 11.11° C | 70% | 1015.4 hPa | - | - | - | - |
| 1777872007 | 12.22° C | 67% | 1015.2 hPa | - | - | - | - |
* Rain since midnight (hover to see other rain measurements)
** Current wind speed in m/s (hover to see current wind gust speed)